aviador You're here:

KTBN Decoded Metar

FORT LEONARDWOOD in MO, USA
Report Time2018-02-22 08:23:00
UTC Time2018-02-22 08:38:02
Flight Rules lifr LIFR
Wind030° at 05 kt
W.Decomp.*RWY 32: 2.0 kt HW 4.6 kt RCW
W.Rank030° ranks 29
Current wind is below 030° avg. (5.6)
Visibility9999 m
Phenomena:N/A
Clouds:Overcast 004 Hf
Ceiling400 ft
Temp-2°C (ISA -15)
Dew Point-2°C (100% RH)
AAT-6.1°C
QNH1027 hPa
Density Alt-1,040 ft
Elevation1,158 ft
Report Wrong Elevation
Raw Report
SPECI KTBN 220823Z AUTO 03005KT 7SM -UP OVC004 M02/M02 A3033 RMK AO2
FZDZE10UPB23 SLP288=

Extra information for KTBN:More info

Metar Taf Metar & Taf Last 4 Metars F.Rules Stats Wind Profile Meteogram Temp Stats Airport Information Weather charts Add Link Nearby VenuesMetar ALERT Operation Metar Decoded Social comments

AIRNAV info for KTBN